sensor_id;sensor_type;location;lat;lon;timestamp;P1;durP1;ratioP1;P2;durP2;ratioP2
62894;SDS011;49204;44.916;37.998;2023-01-19T00:01:34;8.40;;;2.87;;
62894;SDS011;49204;44.916;37.998;2023-01-19T00:04:02;7.12;;;3.12;;
62894;SDS011;49204;44.916;37.998;2023-01-19T00:06:32;11.53;;;4.78;;
62894;SDS011;49204;44.916;37.998;2023-01-19T00:09:00;5.60;;;2.27;;
62894;SDS011;49204;44.916;37.998;2023-01-19T00:11:29;10.75;;;3.27;;
62894;SDS011;49204;44.916;37.998;2023-01-19T00:13:58;5.97;;;3.12;;
62894;SDS011;49204;44.916;37.998;2023-01-19T00:16:26;6.83;;;2.87;;
62894;SDS011;49204;44.916;37.998;2023-01-19T00:18:55;7.15;;;3.50;;
62894;SDS011;49204;44.916;37.998;2023-01-19T00:21:23;11.65;;;5.42;;
62894;SDS011;49204;44.916;37.998;2023-01-19T00:23:52;12.98;;;5.50;;
62894;SDS011;49204;44.916;37.998;2023-01-19T00:26:21;13.53;;;5.95;;
62894;SDS011;49204;44.916;37.998;2023-01-19T00:28:49;13.20;;;5.97;;
62894;SDS011;49204;44.916;37.998;2023-01-19T00:31:18;9.63;;;5.00;;
62894;SDS011;49204;44.916;37.998;2023-01-19T00:33:47;9.90;;;5.58;;
62894;SDS011;49204;44.916;37.998;2023-01-19T00:36:18;10.28;;;5.05;;
62894;SDS011;49204;44.916;37.998;2023-01-19T00:38:46;12.90;;;5.40;;
62894;SDS011;49204;44.916;37.998;2023-01-19T00:41:15;11.80;;;4.53;;
62894;SDS011;49204;44.916;37.998;2023-01-19T00:43:44;13.83;;;5.55;;
62894;SDS011;49204;44.916;37.998;2023-01-19T00:46:12;9.85;;;3.72;;
62894;SDS011;49204;44.916;37.998;2023-01-19T00:48:41;13.25;;;4.90;;
62894;SDS011;49204;44.916;37.998;2023-01-19T00:51:10;10.13;;;4.40;;
62894;SDS011;49204;44.916;37.998;2023-01-19T00:53:39;10.90;;;5.55;;
62894;SDS011;49204;44.916;37.998;2023-01-19T00:56:07;13.48;;;4.90;;
62894;SDS011;49204;44.916;37.998;2023-01-19T00:58:36;13.28;;;5.17;;
62894;SDS011;49204;44.916;37.998;2023-01-19T01:01:05;15.18;;;6.10;;
62894;SDS011;49204;44.916;37.998;2023-01-19T01:03:33;14.90;;;5.45;;
62894;SDS011;49204;44.916;37.998;2023-01-19T01:06:02;11.20;;;5.47;;
62894;SDS011;49204;44.916;37.998;2023-01-19T01:08:33;13.70;;;6.42;;
62894;SDS011;49204;44.916;37.998;2023-01-19T01:11:02;15.30;;;5.78;;
62894;SDS011;49204;44.916;37.998;2023-01-19T01:13:31;12.58;;;6.45;;
62894;SDS011;49204;44.916;37.998;2023-01-19T01:15:59;8.80;;;5.25;;
62894;SDS011;49204;44.916;37.998;2023-01-19T01:18:28;8.60;;;4.45;;
62894;SDS011;49204;44.916;37.998;2023-01-19T01:21:06;8.08;;;4.70;;
62894;SDS011;49204;44.916;37.998;2023-01-19T01:23:30;4.70;;;2.98;;
62894;SDS011;49204;44.916;37.998;2023-01-19T01:25:59;9.95;;;4.00;;
62894;SDS011;49204;44.916;37.998;2023-01-19T01:28:28;6.92;;;3.35;;
62894;SDS011;49204;44.916;37.998;2023-01-19T01:30:58;6.50;;;2.95;;
62894;SDS011;49204;44.916;37.998;2023-01-19T01:33:27;7.17;;;3.80;;
62894;SDS011;49204;44.916;37.998;2023-01-19T01:35:55;7.00;;;3.30;;
62894;SDS011;49204;44.916;37.998;2023-01-19T01:38:24;6.35;;;3.12;;
62894;SDS011;49204;44.916;37.998;2023-01-19T01:40:53;4.80;;;3.12;;
62894;SDS011;49204;44.916;37.998;2023-01-19T01:43:21;13.05;;;3.30;;
62894;SDS011;49204;44.916;37.998;2023-01-19T01:45:50;8.90;;;3.40;;
62894;SDS011;49204;44.916;37.998;2023-01-19T01:48:24;10.43;;;3.50;;
62894;SDS011;49204;44.916;37.998;2023-01-19T01:50:59;8.20;;;3.62;;
62894;SDS011;49204;44.916;37.998;2023-01-19T01:53:48;7.78;;;4.25;;
62894;SDS011;49204;44.916;37.998;2023-01-19T01:56:21;9.15;;;3.90;;
62894;SDS011;49204;44.916;37.998;2023-01-19T01:58:51;8.88;;;3.70;;
62894;SDS011;49204;44.916;37.998;2023-01-19T02:01:20;7.83;;;3.75;;
62894;SDS011;49204;44.916;37.998;2023-01-19T02:04:07;8.95;;;4.20;;
62894;SDS011;49204;44.916;37.998;2023-01-19T02:06:36;13.83;;;4.60;;
62894;SDS011;49204;44.916;37.998;2023-01-19T02:09:23;10.63;;;4.28;;
62894;SDS011;49204;44.916;37.998;2023-01-19T02:12:12;9.58;;;3.95;;
62894;SDS011;49204;44.916;37.998;2023-01-19T02:14:59;9.03;;;4.62;;
62894;SDS011;49204;44.916;37.998;2023-01-19T02:17:27;9.50;;;4.47;;
62894;SDS011;49204;44.916;37.998;2023-01-19T02:19:56;8.63;;;4.15;;
62894;SDS011;49204;44.916;37.998;2023-01-19T02:22:32;13.90;;;5.20;;
62894;SDS011;49204;44.916;37.998;2023-01-19T02:25:04;12.60;;;5.17;;
62894;SDS011;49204;44.916;37.998;2023-01-19T02:27:33;10.53;;;4.60;;
62894;SDS011;49204;44.916;37.998;2023-01-19T02:30:03;10.78;;;4.75;;
62894;SDS011;49204;44.916;37.998;2023-01-19T02:32:34;12.50;;;5.30;;
62894;SDS011;49204;44.916;37.998;2023-01-19T02:35:02;12.18;;;5.10;;
62894;SDS011;49204;44.916;37.998;2023-01-19T02:37:32;12.58;;;5.47;;
62894;SDS011;49204;44.916;37.998;2023-01-19T02:40:07;17.92;;;5.87;;
62894;SDS011;49204;44.916;37.998;2023-01-19T02:42:50;22.60;;;6.33;;
62894;SDS011;49204;44.916;37.998;2023-01-19T02:47:50;17.52;;;6.75;;
62894;SDS011;49204;44.916;37.998;2023-01-19T03:07:48;11.85;;;5.40;;
62894;SDS011;49204;44.916;37.998;2023-01-19T03:13:26;9.95;;;4.10;;
62894;SDS011;49204;44.916;37.998;2023-01-19T03:19:07;15.55;;;5.22;;
62894;SDS011;49204;44.916;37.998;2023-01-19T03:21:36;12.50;;;4.80;;
62894;SDS011;49204;44.916;37.998;2023-01-19T03:24:08;14.47;;;5.85;;
62894;SDS011;49204;44.916;37.998;2023-01-19T03:26:41;14.98;;;5.30;;
62894;SDS011;49204;44.916;37.998;2023-01-19T03:29:11;11.48;;;5.22;;
62894;SDS011;49204;44.916;37.998;2023-01-19T03:31:43;11.10;;;5.15;;
62894;SDS011;49204;44.916;37.998;2023-01-19T03:34:15;11.78;;;5.00;;
62894;SDS011;49204;44.916;37.998;2023-01-19T03:36:52;11.65;;;5.65;;
62894;SDS011;49204;44.916;37.998;2023-01-19T03:39:23;23.25;;;6.70;;
62894;SDS011;49204;44.916;37.998;2023-01-19T03:44:22;12.50;;;5.58;;
62894;SDS011;49204;44.916;37.998;2023-01-19T03:46:53;15.15;;;5.10;;
62894;SDS011;49204;44.916;37.998;2023-01-19T03:49:25;19.80;;;6.65;;
62894;SDS011;49204;44.916;37.998;2023-01-19T03:51:55;26.17;;;6.00;;
62894;SDS011;49204;44.916;37.998;2023-01-19T03:54:25;41.63;;;7.00;;
62894;SDS011;49204;44.916;37.998;2023-01-19T03:56:54;15.58;;;5.83;;
62894;SDS011;49204;44.916;37.998;2023-01-19T03:59:22;16.87;;;6.72;;
62894;SDS011;49204;44.916;37.998;2023-01-19T04:01:51;20.50;;;7.10;;
62894;SDS011;49204;44.916;37.998;2023-01-19T04:04:20;29.48;;;7.95;;
62894;SDS011;49204;44.916;37.998;2023-01-19T04:06:49;26.37;;;7.20;;
62894;SDS011;49204;44.916;37.998;2023-01-19T04:09:18;23.00;;;7.85;;
62894;SDS011;49204;44.916;37.998;2023-01-19T04:11:46;21.82;;;7.10;;
62894;SDS011;49204;44.916;37.998;2023-01-19T04:14:15;22.40;;;7.28;;
62894;SDS011;49204;44.916;37.998;2023-01-19T04:16:44;19.05;;;6.25;;
62894;SDS011;49204;44.916;37.998;2023-01-19T04:19:12;27.67;;;6.65;;
62894;SDS011;49204;44.916;37.998;2023-01-19T04:21:41;19.90;;;5.83;;
62894;SDS011;49204;44.916;37.998;2023-01-19T04:24:11;22.67;;;7.05;;
62894;SDS011;49204;44.916;37.998;2023-01-19T04:26:40;23.18;;;7.47;;
62894;SDS011;49204;44.916;37.998;2023-01-19T04:29:09;14.73;;;6.47;;
62894;SDS011;49204;44.916;37.998;2023-01-19T04:31:39;11.18;;;4.58;;
62894;SDS011;49204;44.916;37.998;2023-01-19T04:34:08;13.75;;;5.97;;
62894;SDS011;49204;44.916;37.998;2023-01-19T04:36:36;13.90;;;6.15;;
62894;SDS011;49204;44.916;37.998;2023-01-19T04:39:05;18.27;;;6.30;;
62894;SDS011;49204;44.916;37.998;2023-01-19T04:41:34;13.43;;;4.67;;
62894;SDS011;49204;44.916;37.998;2023-01-19T04:44:03;18.27;;;5.62;;
62894;SDS011;49204;44.916;37.998;2023-01-19T04:46:32;24.05;;;6.97;;
62894;SDS011;49204;44.916;37.998;2023-01-19T04:49:01;16.67;;;5.55;;
62894;SDS011;49204;44.916;37.998;2023-01-19T04:51:29;17.15;;;5.03;;
62894;SDS011;49204;44.916;37.998;2023-01-19T04:53:58;6.25;;;3.10;;
62894;SDS011;49204;44.916;37.998;2023-01-19T04:56:27;12.68;;;3.80;;
62894;SDS011;49204;44.916;37.998;2023-01-19T04:58:56;13.28;;;4.90;;
62894;SDS011;49204;44.916;37.998;2023-01-19T05:01:24;9.00;;;3.60;;
62894;SDS011;49204;44.916;37.998;2023-01-19T05:03:53;13.25;;;4.17;;
62894;SDS011;49204;44.916;37.998;2023-01-19T05:06:23;19.50;;;6.20;;
62894;SDS011;49204;44.916;37.998;2023-01-19T05:08:52;25.85;;;7.08;;
62894;SDS011;49204;44.916;37.998;2023-01-19T05:11:21;33.55;;;7.55;;
62894;SDS011;49204;44.916;37.998;2023-01-19T05:13:49;40.38;;;8.70;;
62894;SDS011;49204;44.916;37.998;2023-01-19T05:16:18;28.38;;;7.30;;
62894;SDS011;49204;44.916;37.998;2023-01-19T05:18:50;43.17;;;7.90;;
62894;SDS011;49204;44.916;37.998;2023-01-19T05:21:18;39.30;;;8.73;;
62894;SDS011;49204;44.916;37.998;2023-01-19T05:23:47;31.15;;;7.55;;
62894;SDS011;49204;44.916;37.998;2023-01-19T05:26:16;32.60;;;8.90;;
62894;SDS011;49204;44.916;37.998;2023-01-19T05:28:44;30.45;;;9.58;;
62894;SDS011;49204;44.916;37.998;2023-01-19T05:31:13;27.25;;;8.23;;
62894;SDS011;49204;44.916;37.998;2023-01-19T05:33:42;30.00;;;9.18;;
62894;SDS011;49204;44.916;37.998;2023-01-19T05:36:10;24.47;;;7.70;;
62894;SDS011;49204;44.916;37.998;2023-01-19T05:38:39;43.13;;;10.32;;
62894;SDS011;49204;44.916;37.998;2023-01-19T05:41:07;57.13;;;10.68;;
62894;SDS011;49204;44.916;37.998;2023-01-19T05:43:36;26.17;;;7.45;;
62894;SDS011;49204;44.916;37.998;2023-01-19T05:46:05;24.15;;;7.37;;
62894;SDS011;49204;44.916;37.998;2023-01-19T05:48:33;22.65;;;6.17;;
62894;SDS011;49204;44.916;37.998;2023-01-19T05:51:02;17.82;;;5.15;;
62894;SDS011;49204;44.916;37.998;2023-01-19T05:53:31;16.20;;;6.50;;
62894;SDS011;49204;44.916;37.998;2023-01-19T05:56:00;22.40;;;7.30;;
62894;SDS011;49204;44.916;37.998;2023-01-19T05:58:31;43.40;;;11.22;;
62894;SDS011;49204;44.916;37.998;2023-01-19T06:01:02;56.60;;;12.07;;
62894;SDS011;49204;44.916;37.998;2023-01-19T06:03:32;27.93;;;9.03;;
62894;SDS011;49204;44.916;37.998;2023-01-19T06:06:02;25.80;;;9.23;;
62894;SDS011;49204;44.916;37.998;2023-01-19T06:08:31;32.63;;;7.97;;
62894;SDS011;49204;44.916;37.998;2023-01-19T06:11:00;34.23;;;10.45;;
62894;SDS011;49204;44.916;37.998;2023-01-19T06:13:28;37.05;;;10.20;;
62894;SDS011;49204;44.916;37.998;2023-01-19T06:15:57;34.85;;;12.30;;
62894;SDS011;49204;44.916;37.998;2023-01-19T06:18:27;35.30;;;10.13;;
62894;SDS011;49204;44.916;37.998;2023-01-19T06:20:56;34.45;;;11.35;;
62894;SDS011;49204;44.916;37.998;2023-01-19T06:23:25;110.60;;;29.35;;
62894;SDS011;49204;44.916;37.998;2023-01-19T06:25:55;97.27;;;27.82;;
62894;SDS011;49204;44.916;37.998;2023-01-19T06:28:24;102.70;;;28.92;;
62894;SDS011;49204;44.916;37.998;2023-01-19T06:30:54;52.85;;;15.13;;
62894;SDS011;49204;44.916;37.998;2023-01-19T06:33:23;66.22;;;17.40;;
62894;SDS011;49204;44.916;37.998;2023-01-19T06:35:53;64.10;;;16.67;;
62894;SDS011;49204;44.916;37.998;2023-01-19T06:38:23;41.65;;;12.10;;
62894;SDS011;49204;44.916;37.998;2023-01-19T06:40:52;46.18;;;13.05;;
62894;SDS011;49204;44.916;37.998;2023-01-19T06:43:32;49.55;;;11.83;;
62894;SDS011;49204;44.916;37.998;2023-01-19T06:45:57;37.03;;;11.53;;
62894;SDS011;49204;44.916;37.998;2023-01-19T06:48:26;35.13;;;10.45;;
62894;SDS011;49204;44.916;37.998;2023-01-19T06:50:55;54.27;;;12.60;;
62894;SDS011;49204;44.916;37.998;2023-01-19T06:53:24;25.88;;;10.03;;
62894;SDS011;49204;44.916;37.998;2023-01-19T06:55:57;36.75;;;10.55;;
62894;SDS011;49204;44.916;37.998;2023-01-19T07:00:59;29.02;;;8.35;;
62894;SDS011;49204;44.916;37.998;2023-01-19T07:03:29;25.95;;;9.90;;
62894;SDS011;49204;44.916;37.998;2023-01-19T07:05:58;28.47;;;9.35;;
62894;SDS011;49204;44.916;37.998;2023-01-19T07:08:32;25.82;;;11.03;;
62894;SDS011;49204;44.916;37.998;2023-01-19T07:11:03;27.02;;;11.05;;
62894;SDS011;49204;44.916;37.998;2023-01-19T07:13:34;23.62;;;9.15;;
62894;SDS011;49204;44.916;37.998;2023-01-19T07:16:04;31.82;;;11.88;;
62894;SDS011;49204;44.916;37.998;2023-01-19T07:18:35;35.30;;;14.43;;
62894;SDS011;49204;44.916;37.998;2023-01-19T07:21:04;21.97;;;9.40;;
62894;SDS011;49204;44.916;37.998;2023-01-19T07:23:33;19.70;;;7.83;;
62894;SDS011;49204;44.916;37.998;2023-01-19T07:26:03;14.68;;;7.30;;
62894;SDS011;49204;44.916;37.998;2023-01-19T07:28:32;14.43;;;7.15;;
62894;SDS011;49204;44.916;37.998;2023-01-19T07:31:02;17.23;;;7.78;;
62894;SDS011;49204;44.916;37.998;2023-01-19T07:33:31;16.12;;;7.37;;
62894;SDS011;49204;44.916;37.998;2023-01-19T07:36:00;23.80;;;7.55;;
62894;SDS011;49204;44.916;37.998;2023-01-19T07:38:28;18.98;;;7.67;;
62894;SDS011;49204;44.916;37.998;2023-01-19T07:41:00;22.87;;;8.33;;
62894;SDS011;49204;44.916;37.998;2023-01-19T07:43:31;20.57;;;8.38;;
62894;SDS011;49204;44.916;37.998;2023-01-19T07:46:01;25.45;;;8.65;;
62894;SDS011;49204;44.916;37.998;2023-01-19T07:48:31;22.50;;;8.93;;
62894;SDS011;49204;44.916;37.998;2023-01-19T07:51:04;18.77;;;8.65;;
62894;SDS011;49204;44.916;37.998;2023-01-19T07:53:34;24.85;;;8.13;;
62894;SDS011;49204;44.916;37.998;2023-01-19T07:56:03;20.95;;;7.85;;
62894;SDS011;49204;44.916;37.998;2023-01-19T07:58:33;19.27;;;8.08;;
62894;SDS011;49204;44.916;37.998;2023-01-19T08:01:08;23.38;;;8.75;;
62894;SDS011;49204;44.916;37.998;2023-01-19T08:03:38;23.12;;;8.18;;
62894;SDS011;49204;44.916;37.998;2023-01-19T08:06:15;21.57;;;6.67;;
62894;SDS011;49204;44.916;37.998;2023-01-19T08:08:39;19.27;;;7.25;;
62894;SDS011;49204;44.916;37.998;2023-01-19T08:11:08;23.52;;;8.70;;
62894;SDS011;49204;44.916;37.998;2023-01-19T08:13:37;19.98;;;7.47;;
62894;SDS011;49204;44.916;37.998;2023-01-19T08:16:06;16.48;;;7.20;;
62894;SDS011;49204;44.916;37.998;2023-01-19T08:18:34;21.37;;;8.28;;
62894;SDS011;49204;44.916;37.998;2023-01-19T08:21:03;18.62;;;6.12;;
62894;SDS011;49204;44.916;37.998;2023-01-19T08:23:32;6.62;;;2.65;;
62894;SDS011;49204;44.916;37.998;2023-01-19T08:26:01;3.45;;;2.37;;
62894;SDS011;49204;44.916;37.998;2023-01-19T08:28:31;4.62;;;2.50;;
62894;SDS011;49204;44.916;37.998;2023-01-19T08:30:59;4.85;;;2.30;;
62894;SDS011;49204;44.916;37.998;2023-01-19T08:33:28;5.10;;;2.35;;
62894;SDS011;49204;44.916;37.998;2023-01-19T08:35:57;5.92;;;2.35;;
62894;SDS011;49204;44.916;37.998;2023-01-19T08:38:25;5.55;;;2.42;;
62894;SDS011;49204;44.916;37.998;2023-01-19T08:40:54;4.90;;;2.00;;
62894;SDS011;49204;44.916;37.998;2023-01-19T08:43:24;3.83;;;1.90;;
62894;SDS011;49204;44.916;37.998;2023-01-19T08:45:53;8.73;;;2.22;;
62894;SDS011;49204;44.916;37.998;2023-01-19T08:48:22;4.20;;;2.40;;
62894;SDS011;49204;44.916;37.998;2023-01-19T08:50:51;9.13;;;4.45;;
62894;SDS011;49204;44.916;37.998;2023-01-19T08:53:20;5.80;;;2.30;;
62894;SDS011;49204;44.916;37.998;2023-01-19T08:55:49;11.97;;;1.90;;
62894;SDS011;49204;44.916;37.998;2023-01-19T08:58:29;3.37;;;2.10;;
62894;SDS011;49204;44.916;37.998;2023-01-19T09:00:58;8.08;;;2.50;;
62894;SDS011;49204;44.916;37.998;2023-01-19T09:03:27;4.40;;;2.25;;
62894;SDS011;49204;44.916;37.998;2023-01-19T09:05:56;4.45;;;2.20;;
62894;SDS011;49204;44.916;37.998;2023-01-19T09:08:24;3.45;;;1.67;;
62894;SDS011;49204;44.916;37.998;2023-01-19T09:10:53;6.97;;;3.27;;
62894;SDS011;49204;44.916;37.998;2023-01-19T09:13:22;5.67;;;3.35;;
62894;SDS011;49204;44.916;37.998;2023-01-19T09:15:51;5.80;;;2.60;;
62894;SDS011;49204;44.916;37.998;2023-01-19T09:18:25;4.08;;;1.75;;
62894;SDS011;49204;44.916;37.998;2023-01-19T09:20:55;3.98;;;1.60;;
62894;SDS011;49204;44.916;37.998;2023-01-19T09:23:24;6.95;;;2.15;;
62894;SDS011;49204;44.916;37.998;2023-01-19T09:25:57;7.10;;;2.45;;
62894;SDS011;49204;44.916;37.998;2023-01-19T09:28:28;7.25;;;2.20;;
62894;SDS011;49204;44.916;37.998;2023-01-19T09:30:57;6.72;;;2.52;;
62894;SDS011;49204;44.916;37.998;2023-01-19T09:33:25;3.83;;;2.02;;
62894;SDS011;49204;44.916;37.998;2023-01-19T09:35:54;9.88;;;1.92;;
62894;SDS011;49204;44.916;37.998;2023-01-19T09:38:23;5.17;;;2.22;;
62894;SDS011;49204;44.916;37.998;2023-01-19T09:40:53;5.95;;;1.87;;
62894;SDS011;49204;44.916;37.998;2023-01-19T09:46:14;5.65;;;1.62;;
62894;SDS011;49204;44.916;37.998;2023-01-19T09:48:55;4.05;;;2.00;;
62894;SDS011;49204;44.916;37.998;2023-01-19T09:51:28;4.20;;;2.10;;
62894;SDS011;49204;44.916;37.998;2023-01-19T09:54:15;2.85;;;1.80;;
62894;SDS011;49204;44.916;37.998;2023-01-19T09:56:42;4.92;;;2.10;;
62894;SDS011;49204;44.916;37.998;2023-01-19T10:01:54;4.10;;;1.50;;
62894;SDS011;49204;44.916;37.998;2023-01-19T10:04:43;4.15;;;1.70;;
62894;SDS011;49204;44.916;37.998;2023-01-19T10:07:18;7.10;;;2.12;;
62894;SDS011;49204;44.916;37.998;2023-01-19T10:09:45;3.85;;;1.72;;
62894;SDS011;49204;44.916;37.998;2023-01-19T10:12:28;3.10;;;1.67;;
62894;SDS011;49204;44.916;37.998;2023-01-19T10:17:42;5.28;;;2.25;;
62894;SDS011;49204;44.916;37.998;2023-01-19T10:20:27;6.62;;;2.22;;
62894;SDS011;49204;44.916;37.998;2023-01-19T10:22:47;4.85;;;2.12;;
62894;SDS011;49204;44.916;37.998;2023-01-19T10:25:18;6.42;;;2.08;;
62894;SDS011;49204;44.916;37.998;2023-01-19T10:30:19;4.53;;;1.82;;
62894;SDS011;49204;44.916;37.998;2023-01-19T10:32:51;3.35;;;1.90;;
62894;SDS011;49204;44.916;37.998;2023-01-19T10:35:21;3.02;;;1.70;;
62894;SDS011;49204;44.916;37.998;2023-01-19T10:37:59;7.65;;;2.20;;
62894;SDS011;49204;44.916;37.998;2023-01-19T10:43:34;4.40;;;1.50;;
62894;SDS011;49204;44.916;37.998;2023-01-19T10:46:16;7.42;;;1.60;;
62894;SDS011;49204;44.916;37.998;2023-01-19T10:48:55;4.85;;;2.20;;
62894;SDS011;49204;44.916;37.998;2023-01-19T10:51:27;3.25;;;1.75;;
62894;SDS011;49204;44.916;37.998;2023-01-19T10:54:02;4.12;;;1.47;;
62894;SDS011;49204;44.916;37.998;2023-01-19T10:56:33;7.45;;;1.98;;
62894;SDS011;49204;44.916;37.998;2023-01-19T10:59:03;4.53;;;1.90;;
62894;SDS011;49204;44.916;37.998;2023-01-19T11:01:33;5.05;;;1.67;;
62894;SDS011;49204;44.916;37.998;2023-01-19T11:07:12;6.22;;;2.05;;
62894;SDS011;49204;44.916;37.998;2023-01-19T11:09:42;2.87;;;1.70;;
62894;SDS011;49204;44.916;37.998;2023-01-19T11:12:17;4.15;;;1.80;;
62894;SDS011;49204;44.916;37.998;2023-01-19T11:14:53;8.58;;;3.08;;
62894;SDS011;49204;44.916;37.998;2023-01-19T11:17:21;9.25;;;2.77;;
62894;SDS011;49204;44.916;37.998;2023-01-19T11:19:57;6.08;;;2.67;;
62894;SDS011;49204;44.916;37.998;2023-01-19T11:22:27;6.58;;;3.05;;
62894;SDS011;49204;44.916;37.998;2023-01-19T11:25:04;6.45;;;2.70;;
62894;SDS011;49204;44.916;37.998;2023-01-19T11:27:31;7.67;;;2.55;;
62894;SDS011;49204;44.916;37.998;2023-01-19T11:30:06;5.17;;;2.05;;
62894;SDS011;49204;44.916;37.998;2023-01-19T11:32:36;4.42;;;2.00;;
62894;SDS011;49204;44.916;37.998;2023-01-19T11:40:50;4.37;;;2.33;;
62894;SDS011;49204;44.916;37.998;2023-01-19T11:43:23;4.60;;;1.85;;
62894;SDS011;49204;44.916;37.998;2023-01-19T11:45:51;7.83;;;1.98;;
62894;SDS011;49204;44.916;37.998;2023-01-19T11:48:38;4.92;;;1.85;;
62894;SDS011;49204;44.916;37.998;2023-01-19T11:51:13;5.60;;;2.02;;
62894;SDS011;49204;44.916;37.998;2023-01-19T11:53:43;4.67;;;1.67;;
62894;SDS011;49204;44.916;37.998;2023-01-19T11:56:14;5.92;;;1.80;;
62894;SDS011;49204;44.916;37.998;2023-01-19T11:58:43;2.45;;;1.37;;
62894;SDS011;49204;44.916;37.998;2023-01-19T12:01:16;5.05;;;1.90;;
62894;SDS011;49204;44.916;37.998;2023-01-19T12:06:50;3.22;;;1.80;;
62894;SDS011;49204;44.916;37.998;2023-01-19T12:09:32;3.42;;;1.67;;
62894;SDS011;49204;44.916;37.998;2023-01-19T12:12:09;4.33;;;1.75;;
62894;SDS011;49204;44.916;37.998;2023-01-19T12:17:39;4.00;;;1.12;;
62894;SDS011;49204;44.916;37.998;2023-01-19T12:20:15;2.65;;;1.45;;
62894;SDS011;49204;44.916;37.998;2023-01-19T12:22:51;2.80;;;1.40;;
62894;SDS011;49204;44.916;37.998;2023-01-19T12:25:27;3.62;;;1.62;;
62894;SDS011;49204;44.916;37.998;2023-01-19T12:27:52;3.17;;;1.55;;
62894;SDS011;49204;44.916;37.998;2023-01-19T12:30:22;4.83;;;1.50;;
62894;SDS011;49204;44.916;37.998;2023-01-19T12:35:55;3.27;;;1.50;;
62894;SDS011;49204;44.916;37.998;2023-01-19T12:41:19;3.92;;;1.90;;
62894;SDS011;49204;44.916;37.998;2023-01-19T12:49:23;4.12;;;1.85;;
62894;SDS011;49204;44.916;37.998;2023-01-19T12:55:05;4.70;;;1.32;;
62894;SDS011;49204;44.916;37.998;2023-01-19T13:00:31;2.75;;;1.55;;
62894;SDS011;49204;44.916;37.998;2023-01-19T13:05:50;4.55;;;1.90;;
62894;SDS011;49204;44.916;37.998;2023-01-19T13:08:26;8.70;;;2.25;;
62894;SDS011;49204;44.916;37.998;2023-01-19T13:13:44;4.37;;;1.95;;
62894;SDS011;49204;44.916;37.998;2023-01-19T13:21:37;4.03;;;1.82;;
62894;SDS011;49204;44.916;37.998;2023-01-19T13:24:09;7.45;;;1.67;;
62894;SDS011;49204;44.916;37.998;2023-01-19T13:29:29;6.55;;;2.72;;
62894;SDS011;49204;44.916;37.998;2023-01-19T13:32:04;7.10;;;2.20;;
62894;SDS011;49204;44.916;37.998;2023-01-19T13:34:40;6.03;;;1.80;;
62894;SDS011;49204;44.916;37.998;2023-01-19T13:37:19;4.67;;;1.80;;
62894;SDS011;49204;44.916;37.998;2023-01-19T13:39:50;12.03;;;2.80;;
62894;SDS011;49204;44.916;37.998;2023-01-19T13:42:55;6.70;;;1.65;;
62894;SDS011;49204;44.916;37.998;2023-01-19T13:45:15;8.58;;;2.77;;
62894;SDS011;49204;44.916;37.998;2023-01-19T13:47:37;7.17;;;2.37;;
62894;SDS011;49204;44.916;37.998;2023-01-19T13:50:17;9.18;;;2.72;;
62894;SDS011;49204;44.916;37.998;2023-01-19T13:52:41;5.78;;;2.22;;
62894;SDS011;49204;44.916;37.998;2023-01-19T13:55:14;4.92;;;2.35;;
62894;SDS011;49204;44.916;37.998;2023-01-19T13:57:44;4.10;;;2.08;;
62894;SDS011;49204;44.916;37.998;2023-01-19T14:00:18;6.40;;;1.95;;
62894;SDS011;49204;44.916;37.998;2023-01-19T14:05:35;24.52;;;12.23;;
62894;SDS011;49204;44.916;37.998;2023-01-19T14:08:11;12.23;;;6.70;;
62894;SDS011;49204;44.916;37.998;2023-01-19T14:10:44;9.43;;;4.70;;
62894;SDS011;49204;44.916;37.998;2023-01-19T14:13:22;9.60;;;2.95;;
62894;SDS011;49204;44.916;37.998;2023-01-19T14:15:54;8.93;;;2.90;;
62894;SDS011;49204;44.916;37.998;2023-01-19T14:21:02;5.03;;;2.17;;
62894;SDS011;49204;44.916;37.998;2023-01-19T14:29:24;5.40;;;2.25;;
62894;SDS011;49204;44.916;37.998;2023-01-19T14:32:16;6.80;;;2.15;;
62894;SDS011;49204;44.916;37.998;2023-01-19T14:34:51;6.45;;;2.60;;
62894;SDS011;49204;44.916;37.998;2023-01-19T14:37:32;9.23;;;2.58;;
62894;SDS011;49204;44.916;37.998;2023-01-19T14:42:51;10.08;;;2.90;;
62894;SDS011;49204;44.916;37.998;2023-01-19T14:45:26;7.92;;;2.08;;
62894;SDS011;49204;44.916;37.998;2023-01-19T14:47:57;6.28;;;2.50;;
62894;SDS011;49204;44.916;37.998;2023-01-19T14:50:35;11.30;;;2.52;;
62894;SDS011;49204;44.916;37.998;2023-01-19T14:55:48;7.85;;;2.65;;
62894;SDS011;49204;44.916;37.998;2023-01-19T14:58:22;11.25;;;3.47;;
62894;SDS011;49204;44.916;37.998;2023-01-19T15:00:51;14.68;;;3.35;;
62894;SDS011;49204;44.916;37.998;2023-01-19T15:03:21;12.05;;;4.10;;
62894;SDS011;49204;44.916;37.998;2023-01-19T15:05:50;8.30;;;3.17;;
62894;SDS011;49204;44.916;37.998;2023-01-19T15:08:27;9.83;;;4.35;;
62894;SDS011;49204;44.916;37.998;2023-01-19T15:11:05;8.83;;;2.95;;
62894;SDS011;49204;44.916;37.998;2023-01-19T15:13:36;9.33;;;3.10;;
62894;SDS011;49204;44.916;37.998;2023-01-19T15:16:07;6.35;;;3.00;;
62894;SDS011;49204;44.916;37.998;2023-01-19T15:18:35;5.53;;;2.72;;
62894;SDS011;49204;44.916;37.998;2023-01-19T15:21:04;7.60;;;2.77;;
62894;SDS011;49204;44.916;37.998;2023-01-19T15:23:34;5.47;;;2.65;;
62894;SDS011;49204;44.916;37.998;2023-01-19T15:26:04;10.43;;;2.17;;
62894;SDS011;49204;44.916;37.998;2023-01-19T15:28:33;7.08;;;2.47;;
62894;SDS011;49204;44.916;37.998;2023-01-19T15:31:01;6.67;;;3.25;;
62894;SDS011;49204;44.916;37.998;2023-01-19T15:33:30;10.85;;;4.08;;
62894;SDS011;49204;44.916;37.998;2023-01-19T15:36:00;8.83;;;3.30;;
62894;SDS011;49204;44.916;37.998;2023-01-19T15:38:28;6.72;;;3.02;;
62894;SDS011;49204;44.916;37.998;2023-01-19T15:40:57;5.58;;;2.50;;
62894;SDS011;49204;44.916;37.998;2023-01-19T15:43:26;4.22;;;1.90;;
62894;SDS011;49204;44.916;37.998;2023-01-19T15:46:00;7.62;;;2.15;;
62894;SDS011;49204;44.916;37.998;2023-01-19T15:48:31;6.80;;;3.00;;
62894;SDS011;49204;44.916;37.998;2023-01-19T15:51:00;10.90;;;2.60;;
62894;SDS011;49204;44.916;37.998;2023-01-19T15:53:28;14.05;;;4.20;;
62894;SDS011;49204;44.916;37.998;2023-01-19T15:55:57;12.78;;;3.62;;
62894;SDS011;49204;44.916;37.998;2023-01-19T15:58:26;16.07;;;4.37;;
62894;SDS011;49204;44.916;37.998;2023-01-19T16:00:55;13.13;;;4.03;;
62894;SDS011;49204;44.916;37.998;2023-01-19T16:03:24;26.45;;;5.58;;
62894;SDS011;49204;44.916;37.998;2023-01-19T16:05:53;27.25;;;6.78;;
62894;SDS011;49204;44.916;37.998;2023-01-19T16:08:22;27.13;;;4.17;;
62894;SDS011;49204;44.916;37.998;2023-01-19T16:10:50;18.52;;;4.85;;
62894;SDS011;49204;44.916;37.998;2023-01-19T16:13:19;26.25;;;4.05;;
62894;SDS011;49204;44.916;37.998;2023-01-19T16:15:48;31.80;;;5.22;;
62894;SDS011;49204;44.916;37.998;2023-01-19T16:18:16;57.67;;;23.60;;
62894;SDS011;49204;44.916;37.998;2023-01-19T16:20:45;42.53;;;15.35;;
62894;SDS011;49204;44.916;37.998;2023-01-19T16:23:14;67.32;;;24.12;;
62894;SDS011;49204;44.916;37.998;2023-01-19T16:25:42;42.50;;;14.75;;
62894;SDS011;49204;44.916;37.998;2023-01-19T16:28:11;30.72;;;9.48;;
62894;SDS011;49204;44.916;37.998;2023-01-19T16:30:40;21.50;;;6.62;;
62894;SDS011;49204;44.916;37.998;2023-01-19T16:33:09;25.15;;;6.58;;
62894;SDS011;49204;44.916;37.998;2023-01-19T16:35:38;18.90;;;5.83;;